sensor_id;sensor_type;location;lat;lon;timestamp;pressure;altitude;pressure_sealevel;temperature;humidity
62600;BME280;48671;48.922;2.346;2023-11-19T00:00:25;101328.91;;;17.58;74.22
62600;BME280;48671;48.922;2.346;2023-11-19T00:02:50;101323.75;;;17.56;74.06
62600;BME280;48671;48.922;2.346;2023-11-19T00:05:16;101320.91;;;17.59;74.09
62600;BME280;48671;48.922;2.346;2023-11-19T00:07:41;101309.91;;;17.52;74.16
62600;BME280;48671;48.922;2.346;2023-11-19T00:10:12;101313.13;;;17.58;74.13
62600;BME280;48671;48.922;2.346;2023-11-19T00:12:39;101310.78;;;17.53;73.95
62600;BME280;48671;48.922;2.346;2023-11-19T00:15:05;101309.66;;;17.57;74.42
62600;BME280;48671;48.922;2.346;2023-11-19T00:17:32;101315.94;;;17.54;74.56
62600;BME280;48671;48.922;2.346;2023-11-19T00:19:57;101319.41;;;17.55;74.43
62600;BME280;48671;48.922;2.346;2023-11-19T00:22:22;101311.53;;;17.55;74.40
62600;BME280;48671;48.922;2.346;2023-11-19T00:24:48;101305.34;;;17.56;74.39
62600;BME280;48671;48.922;2.346;2023-11-19T00:27:13;101298.97;;;17.60;74.17
62600;BME280;48671;48.922;2.346;2023-11-19T00:29:39;101302.44;;;17.61;73.74
62600;BME280;48671;48.922;2.346;2023-11-19T00:32:04;101293.69;;;17.60;73.94
62600;BME280;48671;48.922;2.346;2023-11-19T00:34:30;101291.97;;;17.59;74.05
62600;BME280;48671;48.922;2.346;2023-11-19T00:36:56;101284.19;;;17.58;74.10
62600;BME280;48671;48.922;2.346;2023-11-19T00:39:21;101300.81;;;17.58;74.18
62600;BME280;48671;48.922;2.346;2023-11-19T00:41:47;101292.19;;;17.56;74.17
62600;BME280;48671;48.922;2.346;2023-11-19T00:44:13;101294.88;;;17.54;74.36
62600;BME280;48671;48.922;2.346;2023-11-19T00:46:38;101292.09;;;17.58;74.37
62600;BME280;48671;48.922;2.346;2023-11-19T00:49:04;101290.97;;;17.62;74.12
62600;BME280;48671;48.922;2.346;2023-11-19T00:51:29;101292.38;;;17.67;73.83
62600;BME280;48671;48.922;2.346;2023-11-19T00:53:56;101289.34;;;17.59;73.86
62600;BME280;48671;48.922;2.346;2023-11-19T00:56:22;101289.94;;;17.64;73.75
62600;BME280;48671;48.922;2.346;2023-11-19T00:58:47;101289.16;;;17.62;73.92
62600;BME280;48671;48.922;2.346;2023-11-19T01:01:13;101284.50;;;17.67;73.56
62600;BME280;48671;48.922;2.346;2023-11-19T01:03:38;101280.72;;;17.71;73.44
62600;BME280;48671;48.922;2.346;2023-11-19T01:06:04;101287.59;;;17.74;73.57
62600;BME280;48671;48.922;2.346;2023-11-19T01:08:29;101292.66;;;17.63;73.66
62600;BME280;48671;48.922;2.346;2023-11-19T01:10:55;101281.75;;;17.69;73.49
62600;BME280;48671;48.922;2.346;2023-11-19T01:13:20;101290.69;;;17.66;73.63
62600;BME280;48671;48.922;2.346;2023-11-19T01:15:45;101300.75;;;17.74;73.51
62600;BME280;48671;48.922;2.346;2023-11-19T01:18:12;101292.22;;;17.70;73.43
62600;BME280;48671;48.922;2.346;2023-11-19T01:20:38;101288.63;;;17.71;73.53
62600;BME280;48671;48.922;2.346;2023-11-19T01:23:03;101294.56;;;17.75;73.10
62600;BME280;48671;48.922;2.346;2023-11-19T01:25:29;101297.19;;;17.75;73.49
62600;BME280;48671;48.922;2.346;2023-11-19T01:27:54;101297.88;;;17.78;73.09
62600;BME280;48671;48.922;2.346;2023-11-19T01:30:22;101296.34;;;17.74;73.29
62600;BME280;48671;48.922;2.346;2023-11-19T01:32:47;101293.50;;;17.79;73.17
62600;BME280;48671;48.922;2.346;2023-11-19T01:35:12;101297.81;;;17.80;73.32
62600;BME280;48671;48.922;2.346;2023-11-19T01:37:38;101305.91;;;17.75;73.47
62600;BME280;48671;48.922;2.346;2023-11-19T01:40:03;101295.69;;;17.71;73.44
62600;BME280;48671;48.922;2.346;2023-11-19T01:42:40;101310.13;;;17.80;73.20
62600;BME280;48671;48.922;2.346;2023-11-19T01:45:07;101314.53;;;17.79;73.12
62600;BME280;48671;48.922;2.346;2023-11-19T01:47:35;101318.75;;;17.82;73.05
62600;BME280;48671;48.922;2.346;2023-11-19T01:50:01;101315.28;;;17.81;72.88
62600;BME280;48671;48.922;2.346;2023-11-19T01:52:32;101313.66;;;17.78;72.93
62600;BME280;48671;48.922;2.346;2023-11-19T01:54:59;101312.25;;;17.73;73.14
62600;BME280;48671;48.922;2.346;2023-11-19T01:57:25;101305.88;;;17.77;73.03
62600;BME280;48671;48.922;2.346;2023-11-19T01:59:52;101304.41;;;17.71;72.86
62600;BME280;48671;48.922;2.346;2023-11-19T02:02:18;101298.13;;;17.74;72.60
62600;BME280;48671;48.922;2.346;2023-11-19T02:04:47;101286.94;;;17.70;73.09
62600;BME280;48671;48.922;2.346;2023-11-19T02:07:13;101287.78;;;17.71;72.54
62600;BME280;48671;48.922;2.346;2023-11-19T02:09:42;101287.50;;;17.75;72.69
62600;BME280;48671;48.922;2.346;2023-11-19T02:12:08;101282.09;;;17.78;72.28
62600;BME280;48671;48.922;2.346;2023-11-19T02:14:34;101281.34;;;17.76;72.29
62600;BME280;48671;48.922;2.346;2023-11-19T02:16:59;101276.22;;;17.73;72.52
62600;BME280;48671;48.922;2.346;2023-11-19T02:19:25;101291.25;;;17.71;72.48
62600;BME280;48671;48.922;2.346;2023-11-19T02:21:50;101292.09;;;17.72;72.39
62600;BME280;48671;48.922;2.346;2023-11-19T02:24:21;101276.69;;;17.66;72.61
62600;BME280;48671;48.922;2.346;2023-11-19T02:27:02;101282.69;;;17.68;72.46
62600;BME280;48671;48.922;2.346;2023-11-19T02:29:31;101279.41;;;17.64;72.46
62600;BME280;48671;48.922;2.346;2023-11-19T02:31:56;101282.31;;;17.60;72.45
62600;BME280;48671;48.922;2.346;2023-11-19T02:34:21;101288.97;;;17.65;72.12
62600;BME280;48671;48.922;2.346;2023-11-19T02:36:47;101281.97;;;17.66;72.52
62600;BME280;48671;48.922;2.346;2023-11-19T02:39:12;101277.63;;;17.65;71.94
62600;BME280;48671;48.922;2.346;2023-11-19T02:41:38;101275.53;;;17.55;72.28
62600;BME280;48671;48.922;2.346;2023-11-19T02:44:05;101284.84;;;17.61;72.24
62600;BME280;48671;48.922;2.346;2023-11-19T02:46:31;101278.75;;;17.61;72.15
62600;BME280;48671;48.922;2.346;2023-11-19T02:48:57;101270.84;;;17.61;72.12
62600;BME280;48671;48.922;2.346;2023-11-19T02:51:22;101281.19;;;17.64;71.94
62600;BME280;48671;48.922;2.346;2023-11-19T02:53:47;101280.53;;;17.60;72.07
62600;BME280;48671;48.922;2.346;2023-11-19T02:56:13;101281.09;;;17.65;71.92
62600;BME280;48671;48.922;2.346;2023-11-19T02:58:50;101274.31;;;17.61;71.64
62600;BME280;48671;48.922;2.346;2023-11-19T03:01:21;101275.53;;;17.55;71.68
62600;BME280;48671;48.922;2.346;2023-11-19T03:03:54;101273.84;;;17.54;71.62
62600;BME280;48671;48.922;2.346;2023-11-19T03:06:20;101278.34;;;17.52;71.67
62600;BME280;48671;48.922;2.346;2023-11-19T03:08:47;101274.88;;;17.52;71.95
62600;BME280;48671;48.922;2.346;2023-11-19T03:11:13;101280.97;;;17.52;71.60
62600;BME280;48671;48.922;2.346;2023-11-19T03:13:39;101284.47;;;17.53;71.64
62600;BME280;48671;48.922;2.346;2023-11-19T03:16:04;101278.78;;;17.45;71.36
62600;BME280;48671;48.922;2.346;2023-11-19T03:18:29;101294.34;;;17.49;71.54
62600;BME280;48671;48.922;2.346;2023-11-19T03:20:55;101294.41;;;17.48;71.72
62600;BME280;48671;48.922;2.346;2023-11-19T03:23:20;101286.50;;;17.48;71.54
62600;BME280;48671;48.922;2.346;2023-11-19T03:25:46;101275.41;;;17.43;71.86
62600;BME280;48671;48.922;2.346;2023-11-19T03:28:11;101282.19;;;17.47;71.50
62600;BME280;48671;48.922;2.346;2023-11-19T03:30:37;101285.75;;;17.46;71.74
62600;BME280;48671;48.922;2.346;2023-11-19T03:33:02;101272.97;;;17.40;71.91
62600;BME280;48671;48.922;2.346;2023-11-19T03:35:28;101278.03;;;17.43;71.54
62600;BME280;48671;48.922;2.346;2023-11-19T03:37:53;101275.59;;;17.40;71.74
62600;BME280;48671;48.922;2.346;2023-11-19T03:40:19;101273.81;;;17.40;71.83
62600;BME280;48671;48.922;2.346;2023-11-19T03:42:47;101268.38;;;17.43;71.68
62600;BME280;48671;48.922;2.346;2023-11-19T03:45:13;101264.13;;;17.41;72.07
62600;BME280;48671;48.922;2.346;2023-11-19T03:47:38;101262.44;;;17.40;71.97
62600;BME280;48671;48.922;2.346;2023-11-19T03:50:05;101262.63;;;17.37;71.67
62600;BME280;48671;48.922;2.346;2023-11-19T03:52:30;101262.53;;;17.38;71.56
62600;BME280;48671;48.922;2.346;2023-11-19T03:54:56;101265.09;;;17.40;71.81
62600;BME280;48671;48.922;2.346;2023-11-19T03:57:23;101273.81;;;17.40;71.87
62600;BME280;48671;48.922;2.346;2023-11-19T03:59:49;101267.13;;;17.35;71.90
62600;BME280;48671;48.922;2.346;2023-11-19T04:02:15;101264.78;;;17.30;71.92
62600;BME280;48671;48.922;2.346;2023-11-19T04:04:40;101275.19;;;17.31;72.17
62600;BME280;48671;48.922;2.346;2023-11-19T04:07:06;101274.59;;;17.26;72.16
62600;BME280;48671;48.922;2.346;2023-11-19T04:09:32;101285.72;;;17.31;71.73
62600;BME280;48671;48.922;2.346;2023-11-19T04:11:58;101274.69;;;17.25;71.72
62600;BME280;48671;48.922;2.346;2023-11-19T04:14:24;101275.88;;;17.19;72.07
62600;BME280;48671;48.922;2.346;2023-11-19T04:16:49;101267.78;;;17.08;72.14
62600;BME280;48671;48.922;2.346;2023-11-19T04:19:18;101277.94;;;17.14;71.82
62600;BME280;48671;48.922;2.346;2023-11-19T04:21:43;101286.09;;;17.09;71.79
62600;BME280;48671;48.922;2.346;2023-11-19T04:24:09;101293.97;;;17.09;71.68
62600;BME280;48671;48.922;2.346;2023-11-19T04:26:42;101282.88;;;17.04;71.74
62600;BME280;48671;48.922;2.346;2023-11-19T04:29:12;101289.56;;;17.10;71.75
62600;BME280;48671;48.922;2.346;2023-11-19T04:31:37;101283.44;;;17.09;71.48
62600;BME280;48671;48.922;2.346;2023-11-19T04:34:03;101282.88;;;17.04;71.68
62600;BME280;48671;48.922;2.346;2023-11-19T04:36:28;101289.81;;;17.05;71.06
62600;BME280;48671;48.922;2.346;2023-11-19T04:38:55;101293.41;;;17.04;70.78
62600;BME280;48671;48.922;2.346;2023-11-19T04:41:20;101290.84;;;17.03;70.98
62600;BME280;48671;48.922;2.346;2023-11-19T04:43:45;101294.41;;;17.02;70.94
62600;BME280;48671;48.922;2.346;2023-11-19T04:46:10;101290.16;;;16.99;70.42
62600;BME280;48671;48.922;2.346;2023-11-19T04:48:36;101292.91;;;16.98;70.67
62600;BME280;48671;48.922;2.346;2023-11-19T04:51:04;101303.25;;;17.01;70.78
62600;BME280;48671;48.922;2.346;2023-11-19T04:53:30;101302.47;;;16.99;70.20
62600;BME280;48671;48.922;2.346;2023-11-19T04:55:55;101308.56;;;16.99;70.14
62600;BME280;48671;48.922;2.346;2023-11-19T04:58:20;101315.78;;;16.96;69.61
62600;BME280;48671;48.922;2.346;2023-11-19T05:00:46;101316.63;;;16.96;69.37
62600;BME280;48671;48.922;2.346;2023-11-19T05:03:11;101310.19;;;17.02;69.52
62600;BME280;48671;48.922;2.346;2023-11-19T05:05:36;101304.44;;;16.95;68.54
62600;BME280;48671;48.922;2.346;2023-11-19T05:08:02;101308.00;;;16.94;69.23
62600;BME280;48671;48.922;2.346;2023-11-19T05:10:27;101305.44;;;16.93;68.65
62600;BME280;48671;48.922;2.346;2023-11-19T05:12:52;101310.03;;;16.89;68.22
62600;BME280;48671;48.922;2.346;2023-11-19T05:15:18;101303.09;;;16.88;68.55
62600;BME280;48671;48.922;2.346;2023-11-19T05:17:43;101307.31;;;16.91;67.93
62600;BME280;48671;48.922;2.346;2023-11-19T05:20:09;101308.91;;;16.93;68.42
62600;BME280;48671;48.922;2.346;2023-11-19T05:22:42;101308.00;;;16.94;68.39
62600;BME280;48671;48.922;2.346;2023-11-19T05:25:08;101310.69;;;16.93;68.52
62600;BME280;48671;48.922;2.346;2023-11-19T05:27:34;101316.63;;;16.96;68.67
62600;BME280;48671;48.922;2.346;2023-11-19T05:30:01;101315.88;;;16.94;68.60
62600;BME280;48671;48.922;2.346;2023-11-19T05:32:27;101318.59;;;16.93;68.55
62600;BME280;48671;48.922;2.346;2023-11-19T05:34:52;101318.69;;;16.91;67.97
62600;BME280;48671;48.922;2.346;2023-11-19T05:37:17;101331.72;;;16.77;67.52
62600;BME280;48671;48.922;2.346;2023-11-19T05:39:45;101327.06;;;16.82;68.30
62600;BME280;48671;48.922;2.346;2023-11-19T05:42:10;101304.69;;;16.75;67.22
62600;BME280;48671;48.922;2.346;2023-11-19T05:44:35;101323.78;;;16.78;68.01
62600;BME280;48671;48.922;2.346;2023-11-19T05:47:02;101318.72;;;16.74;67.13
62600;BME280;48671;48.922;2.346;2023-11-19T05:49:27;101315.25;;;16.73;67.43
62600;BME280;48671;48.922;2.346;2023-11-19T05:51:52;101334.47;;;16.74;67.80
62600;BME280;48671;48.922;2.346;2023-11-19T05:54:21;101335.69;;;16.68;67.65
62600;BME280;48671;48.922;2.346;2023-11-19T05:56:49;101328.66;;;16.69;67.99
62600;BME280;48671;48.922;2.346;2023-11-19T05:59:14;101345.16;;;16.71;68.00
62600;BME280;48671;48.922;2.346;2023-11-19T06:01:43;101345.16;;;16.71;68.09
62600;BME280;48671;48.922;2.346;2023-11-19T06:04:09;101344.31;;;16.70;67.74
62600;BME280;48671;48.922;2.346;2023-11-19T06:06:35;101341.78;;;16.69;68.02
62600;BME280;48671;48.922;2.346;2023-11-19T06:09:00;101345.16;;;16.71;67.57
62600;BME280;48671;48.922;2.346;2023-11-19T06:11:26;101350.22;;;16.75;67.92
62600;BME280;48671;48.922;2.346;2023-11-19T06:13:52;101340.59;;;16.74;67.39
62600;BME280;48671;48.922;2.346;2023-11-19T06:16:18;101344.25;;;16.72;67.64
62600;BME280;48671;48.922;2.346;2023-11-19T06:18:43;101350.50;;;16.69;67.37
62600;BME280;48671;48.922;2.346;2023-11-19T06:21:09;101355.94;;;16.66;67.58
62600;BME280;48671;48.922;2.346;2023-11-19T06:23:34;101345.84;;;16.58;67.14
62600;BME280;48671;48.922;2.346;2023-11-19T06:26:00;101345.22;;;16.53;67.66
62600;BME280;48671;48.922;2.346;2023-11-19T06:28:25;101346.31;;;16.49;67.33
62600;BME280;48671;48.922;2.346;2023-11-19T06:30:51;101349.13;;;16.46;67.45
62600;BME280;48671;48.922;2.346;2023-11-19T06:33:16;101344.19;;;16.40;68.08
62600;BME280;48671;48.922;2.346;2023-11-19T06:35:41;101354.53;;;16.43;67.97
62600;BME280;48671;48.922;2.346;2023-11-19T06:38:07;101349.19;;;16.45;67.56
62600;BME280;48671;48.922;2.346;2023-11-19T06:40:38;101354.53;;;16.43;67.80
62600;BME280;48671;48.922;2.346;2023-11-19T06:43:06;101351.06;;;16.43;67.27
62600;BME280;48671;48.922;2.346;2023-11-19T06:45:33;101354.78;;;16.38;67.11
62600;BME280;48671;48.922;2.346;2023-11-19T06:48:03;101351.47;;;16.35;67.44
62600;BME280;48671;48.922;2.346;2023-11-19T06:50:29;101352.69;;;16.28;67.04
62600;BME280;48671;48.922;2.346;2023-11-19T06:52:54;101351.00;;;16.27;67.24
62600;BME280;48671;48.922;2.346;2023-11-19T06:55:19;101342.44;;;16.23;67.20
62600;BME280;48671;48.922;2.346;2023-11-19T06:57:45;101347.97;;;16.19;66.90
62600;BME280;48671;48.922;2.346;2023-11-19T07:00:11;101360.06;;;16.21;67.23
62600;BME280;48671;48.922;2.346;2023-11-19T07:02:36;101365.47;;;16.18;67.09
62600;BME280;48671;48.922;2.346;2023-11-19T07:05:02;101357.16;;;16.10;67.00
62600;BME280;48671;48.922;2.346;2023-11-19T07:07:30;101363.56;;;16.04;66.68
62600;BME280;48671;48.922;2.346;2023-11-19T07:09:55;101365.09;;;16.08;66.85
62600;BME280;48671;48.922;2.346;2023-11-19T07:12:21;101371.22;;;16.09;66.76
62600;BME280;48671;48.922;2.346;2023-11-19T07:14:46;101370.88;;;15.98;66.14
62600;BME280;48671;48.922;2.346;2023-11-19T07:17:12;101380.38;;;16.00;66.75
62600;BME280;48671;48.922;2.346;2023-11-19T07:19:37;101373.34;;;16.01;66.54
62600;BME280;48671;48.922;2.346;2023-11-19T07:22:03;101369.75;;;16.03;66.54
62600;BME280;48671;48.922;2.346;2023-11-19T07:24:29;101364.53;;;16.02;66.42
62600;BME280;48671;48.922;2.346;2023-11-19T07:26:54;101362.81;;;16.02;66.32
62600;BME280;48671;48.922;2.346;2023-11-19T07:29:20;101362.63;;;16.05;67.00
62600;BME280;48671;48.922;2.346;2023-11-19T07:31:48;101360.09;;;16.04;66.84
62600;BME280;48671;48.922;2.346;2023-11-19T07:34:14;101355.44;;;15.91;65.65
62600;BME280;48671;48.922;2.346;2023-11-19T07:36:39;101354.44;;;15.94;66.43
62600;BME280;48671;48.922;2.346;2023-11-19T07:39:05;101362.97;;;15.99;66.41
62600;BME280;48671;48.922;2.346;2023-11-19T07:41:31;101384.78;;;16.00;65.38
62600;BME280;48671;48.922;2.346;2023-11-19T07:43:56;101384.84;;;15.98;65.33
62600;BME280;48671;48.922;2.346;2023-11-19T07:46:22;101380.25;;;16.03;66.22
62600;BME280;48671;48.922;2.346;2023-11-19T07:48:47;101381.00;;;16.05;65.46
62600;BME280;48671;48.922;2.346;2023-11-19T07:51:13;101384.09;;;16.13;66.14
62600;BME280;48671;48.922;2.346;2023-11-19T07:53:39;101400.22;;;16.23;65.30
62600;BME280;48671;48.922;2.346;2023-11-19T07:56:06;101391.41;;;16.24;64.96
62600;BME280;48671;48.922;2.346;2023-11-19T07:58:31;101388.56;;;16.29;65.37
62600;BME280;48671;48.922;2.346;2023-11-19T08:00:57;101384.00;;;16.32;65.01
62600;BME280;48671;48.922;2.346;2023-11-19T08:03:22;101399.81;;;16.48;64.96
62600;BME280;48671;48.922;2.346;2023-11-19T08:05:48;101400.81;;;16.46;63.57
62600;BME280;48671;48.922;2.346;2023-11-19T08:08:13;101378.06;;;16.45;63.72
62600;BME280;48671;48.922;2.346;2023-11-19T08:10:39;101397.59;;;16.56;63.84
62600;BME280;48671;48.922;2.346;2023-11-19T08:13:05;101382.09;;;16.52;64.70
62600;BME280;48671;48.922;2.346;2023-11-19T08:15:30;101389.72;;;16.56;64.77
62600;BME280;48671;48.922;2.346;2023-11-19T08:17:56;101405.84;;;16.66;64.81
62600;BME280;48671;48.922;2.346;2023-11-19T08:20:21;101391.78;;;16.67;64.81
62600;BME280;48671;48.922;2.346;2023-11-19T08:22:47;101385.16;;;16.60;64.37
62600;BME280;48671;48.922;2.346;2023-11-19T08:25:15;101378.00;;;16.46;63.87
62600;BME280;48671;48.922;2.346;2023-11-19T08:27:40;101387.56;;;16.47;64.17
62600;BME280;48671;48.922;2.346;2023-11-19T08:30:06;101383.09;;;16.49;63.92
62600;BME280;48671;48.922;2.346;2023-11-19T08:32:34;101387.50;;;16.49;63.80
62600;BME280;48671;48.922;2.346;2023-11-19T08:35:02;101378.78;;;16.48;63.85
62600;BME280;48671;48.922;2.346;2023-11-19T08:37:28;101387.16;;;16.39;63.79
62600;BME280;48671;48.922;2.346;2023-11-19T08:39:53;101403.13;;;16.52;63.78
62600;BME280;48671;48.922;2.346;2023-11-19T08:42:19;101403.19;;;16.50;62.91
62600;BME280;48671;48.922;2.346;2023-11-19T08:44:48;101405.06;;;16.64;63.54
62600;BME280;48671;48.922;2.346;2023-11-19T08:47:15;101413.72;;;16.66;63.16
62600;BME280;48671;48.922;2.346;2023-11-19T08:49:43;101414.81;;;16.79;62.94
62600;BME280;48671;48.922;2.346;2023-11-19T08:52:08;101405.91;;;16.82;63.01
62600;BME280;48671;48.922;2.346;2023-11-19T08:54:34;101415.94;;;16.91;63.18
62600;BME280;48671;48.922;2.346;2023-11-19T08:56:59;101432.66;;;17.06;62.54
62600;BME280;48671;48.922;2.346;2023-11-19T08:59:25;101434.59;;;17.02;60.57
62600;BME280;48671;48.922;2.346;2023-11-19T09:01:50;101449.78;;;16.97;61.23
62600;BME280;48671;48.922;2.346;2023-11-19T09:04:16;101457.22;;;16.89;62.29
62600;BME280;48671;48.922;2.346;2023-11-19T09:06:41;101448.13;;;16.79;62.16
62600;BME280;48671;48.922;2.346;2023-11-19T09:09:08;101461.16;;;16.80;62.46
62600;BME280;48671;48.922;2.346;2023-11-19T09:11:33;101466.69;;;16.76;62.18
62600;BME280;48671;48.922;2.346;2023-11-19T09:13:58;101442.47;;;16.69;62.01
62600;BME280;48671;48.922;2.346;2023-11-19T09:16:24;101453.41;;;16.61;62.41
62600;BME280;48671;48.922;2.346;2023-11-19T09:18:50;101452.72;;;16.58;62.29
62600;BME280;48671;48.922;2.346;2023-11-19T09:21:15;101444.22;;;16.53;62.41
62600;BME280;48671;48.922;2.346;2023-11-19T09:23:40;101459.28;;;16.49;62.25
62600;BME280;48671;48.922;2.346;2023-11-19T09:26:08;101452.34;;;16.48;61.52
62600;BME280;48671;48.922;2.346;2023-11-19T09:28:34;101447.56;;;16.39;61.29
62600;BME280;48671;48.922;2.346;2023-11-19T09:31:01;101458.34;;;16.50;61.39
62600;BME280;48671;48.922;2.346;2023-11-19T09:33:32;101450.16;;;16.56;60.20
62600;BME280;48671;48.922;2.346;2023-11-19T09:35:59;101453.41;;;16.61;60.30
62600;BME280;48671;48.922;2.346;2023-11-19T09:38:25;101438.72;;;16.75;61.04
62600;BME280;48671;48.922;2.346;2023-11-19T09:40:50;101441.38;;;16.91;60.77
62600;BME280;48671;48.922;2.346;2023-11-19T09:43:16;101449.03;;;17.11;59.59
62600;BME280;48671;48.922;2.346;2023-11-19T09:45:49;101450.56;;;17.15;57.74
62600;BME280;48671;48.922;2.346;2023-11-19T09:48:17;101438.94;;;17.19;58.91
62600;BME280;48671;48.922;2.346;2023-11-19T09:50:45;101440.22;;;17.28;57.55
62600;BME280;48671;48.922;2.346;2023-11-19T09:53:12;101440.44;;;17.55;59.44
62600;BME280;48671;48.922;2.346;2023-11-19T09:55:37;101435.34;;;17.68;58.45
62600;BME280;48671;48.922;2.346;2023-11-19T09:58:03;101433.72;;;17.81;57.73
62600;BME280;48671;48.922;2.346;2023-11-19T10:00:29;101434.53;;;17.97;56.89
62600;BME280;48671;48.922;2.346;2023-11-19T10:02:55;101438.25;;;18.09;56.09
62600;BME280;48671;48.922;2.346;2023-11-19T10:05:23;101424.91;;;18.12;56.77
62600;BME280;48671;48.922;2.346;2023-11-19T10:07:49;101438.44;;;18.20;56.33
62600;BME280;48671;48.922;2.346;2023-11-19T10:10:15;101425.28;;;18.20;55.48
62600;BME280;48671;48.922;2.346;2023-11-19T10:12:44;101435.47;;;18.27;56.47
62600;BME280;48671;48.922;2.346;2023-11-19T10:15:24;101438.81;;;18.44;55.80
62600;BME280;48671;48.922;2.346;2023-11-19T10:17:55;101439.75;;;18.58;54.97
62600;BME280;48671;48.922;2.346;2023-11-19T10:20:20;101430.59;;;18.49;53.97
62600;BME280;48671;48.922;2.346;2023-11-19T10:22:46;101443.31;;;18.57;54.94
62600;BME280;48671;48.922;2.346;2023-11-19T10:25:40;101441.19;;;18.78;54.70
62600;BME280;48671;48.922;2.346;2023-11-19T10:28:05;101435.63;;;18.82;54.97
62600;BME280;48671;48.922;2.346;2023-11-19T10:30:31;101435.44;;;18.85;53.43
62600;BME280;48671;48.922;2.346;2023-11-19T10:33:09;101440.22;;;18.93;53.10
62600;BME280;48671;48.922;2.346;2023-11-19T10:35:56;101436.94;;;19.04;54.51
62600;BME280;48671;48.922;2.346;2023-11-19T10:38:25;101440.91;;;18.97;53.23
62600;BME280;48671;48.922;2.346;2023-11-19T10:40:51;101437.66;;;19.06;53.08
62600;BME280;48671;48.922;2.346;2023-11-19T10:43:17;101425.94;;;18.97;53.66
62600;BME280;48671;48.922;2.346;2023-11-19T10:45:43;101424.59;;;19.04;53.83
62600;BME280;48671;48.922;2.346;2023-11-19T10:48:09;101431.69;;;19.31;53.51
62600;BME280;48671;48.922;2.346;2023-11-19T10:50:36;101432.28;;;19.22;52.89
62600;BME280;48671;48.922;2.346;2023-11-19T10:53:03;101427.50;;;19.00;52.99
62600;BME280;48671;48.922;2.346;2023-11-19T10:55:33;101424.72;;;18.74;51.10
62600;BME280;48671;48.922;2.346;2023-11-19T10:58:02;101429.66;;;18.50;51.65
62600;BME280;48671;48.922;2.346;2023-11-19T11:01:01;101425.50;;;18.32;52.00
62600;BME280;48671;48.922;2.346;2023-11-19T11:03:31;101430.06;;;18.14;52.04
62600;BME280;48671;48.922;2.346;2023-11-19T11:05:57;101426.09;;;18.07;52.73
62600;BME280;48671;48.922;2.346;2023-11-19T11:08:23;101413.88;;;18.06;53.24
62600;BME280;48671;48.922;2.346;2023-11-19T11:13:18;101404.88;;;18.10;53.28
62600;BME280;48671;48.922;2.346;2023-11-19T11:15:48;101426.53;;;18.15;53.17
62600;BME280;48671;48.922;2.346;2023-11-19T11:18:13;101417.69;;;18.30;52.54
62600;BME280;48671;48.922;2.346;2023-11-19T11:20:39;101412.44;;;18.44;52.71
62600;BME280;48671;48.922;2.346;2023-11-19T11:28:59;101410.38;;;18.92;50.63
62600;BME280;48671;48.922;2.346;2023-11-19T11:37:27;101399.91;;;19.05;50.50
62600;BME280;48671;48.922;2.346;2023-11-19T11:39:57;101402.47;;;19.07;48.79
62600;BME280;48671;48.922;2.346;2023-11-19T11:45:06;101393.81;;;18.76;49.60
62600;BME280;48671;48.922;2.346;2023-11-19T11:50:23;101403.50;;;18.61;48.70
62600;BME280;48671;48.922;2.346;2023-11-19T11:57:51;101394.56;;;18.35;48.87
62600;BME280;48671;48.922;2.346;2023-11-19T12:02:55;101396.72;;;18.29;49.93
62600;BME280;48671;48.922;2.346;2023-11-19T12:05:21;101401.41;;;18.23;50.14
62600;BME280;48671;48.922;2.346;2023-11-19T12:07:59;101406.72;;;18.08;49.30
62600;BME280;48671;48.922;2.346;2023-11-19T12:10:26;101400.31;;;17.97;49.96
62600;BME280;48671;48.922;2.346;2023-11-19T12:13:01;101389.53;;;18.16;49.56
62600;BME280;48671;48.922;2.346;2023-11-19T12:15:27;101397.44;;;18.31;50.30
62600;BME280;48671;48.922;2.346;2023-11-19T12:17:54;101390.13;;;18.36;49.42
62600;BME280;48671;48.922;2.346;2023-11-19T12:20:24;101389.38;;;18.34;49.43
62600;BME280;48671;48.922;2.346;2023-11-19T12:22:50;101381.16;;;18.24;48.29
62600;BME280;48671;48.922;2.346;2023-11-19T12:25:16;101388.81;;;18.29;49.11
62600;BME280;48671;48.922;2.346;2023-11-19T12:27:44;101375.72;;;18.27;47.97
62600;BME280;48671;48.922;2.346;2023-11-19T12:30:11;101370.91;;;18.34;48.97
62600;BME280;48671;48.922;2.346;2023-11-19T12:32:44;101365.41;;;18.38;48.51
62600;BME280;48671;48.922;2.346;2023-11-19T12:35:11;101362.66;;;18.40;48.73
62600;BME280;48671;48.922;2.346;2023-11-19T12:37:46;101370.47;;;18.41;48.71
62600;BME280;48671;48.922;2.346;2023-11-19T12:40:23;101381.28;;;18.37;48.18
62600;BME280;48671;48.922;2.346;2023-11-19T12:42:53;101380.81;;;18.30;49.18
62600;BME280;48671;48.922;2.346;2023-11-19T12:45:19;101380.50;;;18.20;48.65
62600;BME280;48671;48.922;2.346;2023-11-19T12:47:46;101372.91;;;18.16;48.99
62600;BME280;48671;48.922;2.346;2023-11-19T12:50:13;101377.41;;;18.14;49.68
62600;BME280;48671;48.922;2.346;2023-11-19T12:52:39;101379.66;;;18.20;49.53
62600;BME280;48671;48.922;2.346;2023-11-19T12:55:05;101365.53;;;18.21;49.00
62600;BME280;48671;48.922;2.346;2023-11-19T12:57:48;101368.56;;;18.15;49.73
62600;BME280;48671;48.922;2.346;2023-11-19T13:00:21;101366.78;;;18.30;49.86
62600;BME280;48671;48.922;2.346;2023-11-19T13:02:52;101383.53;;;18.43;49.22
62600;BME280;48671;48.922;2.346;2023-11-19T13:05:32;101376.00;;;18.37;49.32
62600;BME280;48671;48.922;2.346;2023-11-19T13:10:27;101384.56;;;18.40;48.88
62600;BME280;48671;48.922;2.346;2023-11-19T13:13:06;101376.13;;;18.35;49.09
62600;BME280;48671;48.922;2.346;2023-11-19T13:15:34;101371.88;;;18.18;49.41
62600;BME280;48671;48.922;2.346;2023-11-19T13:18:00;101360.09;;;18.10;49.75